Billerica, Massachusetts
Current Conditions -  °F | °C
As of 7:56 PM on Friday 19 Dec 2014 (Local Time) from KBED Reporting Station
Clear Clear  
Wind Chill: 19°   Ceiling: Unl
Heat Index: 27°   Visibility: 10mi
Dew Point: 19°   Wind: 7mph
Humidity: 72%   Direction: 300°WNW
Pressure: 30.07"   Gusts: NA
Location:  42.56°N, 71.27°W
Report Text: KBED 200056Z 30006KT 10SM CLR M03/M07 A3007 RMK AO2 SLP201 T10281072
Loading
Personal Weather Stations






























Interactive Weather Map New forecast layout! Learn more

10-Day Weather Forecast

Advertisements
Track Severe Weather on mobile